Time;durP1;ratioP1;P1;durP2;ratioP2;P2;SDS_P1;SDS_P2;PMS_P1;PMS_P2;Temp;Humidity;BMP_temperature;BMP_pressure;BME280_temperature;BME280_humidity;BME280_pressure;Samples;Min_cycle;Max_cycle;Signal;HPM_P1;HPM_P2
2023/02/16 00:01:00;;;;;;;48.28;32.90;;;6.70;99.90;;;;;;5031427;28;20209;-73
2023/02/16 00:03:28;;;;;;;55.08;34.28;;;6.80;99.90;;;;;;5031960;28;20230;-74
2023/02/16 00:05:55;;;;;;;50.85;31.90;;;6.70;99.90;;;;;;5031713;28;20308;-73
2023/02/16 00:08:22;;;;;;;51.97;30.50;;;6.80;99.90;;;;;;5034050;28;20205;-73
2023/02/16 00:13:47;;;;;;;48.40;31.67;;;6.80;99.90;;;;;;5008238;28;20235;-71
2023/02/16 00:16:16;;;;;;;55.63;35.70;;;6.80;99.90;;;;;;5049333;28;20198;-72
2023/02/16 00:18:44;;;;;;;57.63;33.30;;;6.80;99.90;;;;;;5041192;28;20255;-72
2023/02/16 00:21:11;;;;;;;57.65;35.00;;;6.80;99.90;;;;;;5047697;28;20285;-73
2023/02/16 00:23:38;;;;;;;50.50;33.97;;;6.70;99.90;;;;;;5048133;28;20212;-72
2023/02/16 00:26:07;;;;;;;51.53;33.53;;;6.60;99.90;;;;;;5053586;28;20229;-73
2023/02/16 00:28:34;;;;;;;51.72;34.58;;;6.60;99.90;;;;;;5040578;28;20214;-73
2023/02/16 00:31:01;;;;;;;53.53;33.70;;;6.70;99.90;;;;;;5045393;28;20305;-73
2023/02/16 00:33:29;;;;;;;56.70;34.33;;;6.70;99.90;;;;;;5043737;28;20210;-73
2023/02/16 00:35:58;;;;;;;58.72;35.25;;;6.70;99.90;;;;;;5038401;28;20291;-74
2023/02/16 00:38:25;;;;;;;61.22;37.72;;;6.70;99.90;;;;;;5045617;28;20629;-73
2023/02/16 00:40:52;;;;;;;55.22;35.33;;;6.60;99.90;;;;;;5036315;28;20202;-74
2023/02/16 00:43:27;;;;;;;53.42;34.45;;;6.60;99.90;;;;;;5041009;28;20225;-72
2023/02/16 00:45:55;;;;;;;63.50;40.33;;;6.60;99.90;;;;;;5040606;28;20208;-74
2023/02/16 00:48:22;;;;;;;60.63;37.45;;;6.50;99.90;;;;;;5035253;28;20199;-73
2023/02/16 00:50:49;;;;;;;55.95;38.42;;;6.60;99.90;;;;;;5035138;28;20203;-72
2023/02/16 00:53:17;;;;;;;60.20;37.25;;;6.60;99.90;;;;;;5040569;28;20340;-73
2023/02/16 00:55:44;;;;;;;58.50;41.78;;;6.60;99.90;;;;;;5035896;28;20397;-74
2023/02/16 00:58:26;;;;;;;60.13;35.97;;;6.50;99.90;;;;;;5040911;28;20703;-73
2023/02/16 01:00:55;;;;;;;62.67;38.63;;;6.50;99.90;;;;;;5030267;28;20665;-73
2023/02/16 01:03:25;;;;;;;57.10;36.10;;;6.50;99.90;;;;;;5044644;28;20226;-73
2023/02/16 01:11:06;;;;;;;55.33;35.03;;;6.50;99.90;;;;;;5042412;28;20242;-72
2023/02/16 01:11:25;;;;;;;59.17;36.28;;;6.50;99.90;;;;;;5036930;28;20337;-72
2023/02/16 01:13:54;;;;;;;58.90;36.25;;;6.40;99.90;;;;;;5035612;28;20218;-74
2023/02/16 01:16:23;;;;;;;58.65;34.42;;;6.50;99.90;;;;;;5034588;28;20295;-72
2023/02/16 01:18:50;;;;;;;52.85;32.67;;;6.50;99.90;;;;;;5027956;28;20233;-72
2023/02/16 01:21:17;;;;;;;55.28;34.50;;;6.50;99.90;;;;;;5034990;28;20734;-73
2023/02/16 01:23:45;;;;;;;52.20;33.58;;;6.50;99.90;;;;;;5034377;28;20282;-72
2023/02/16 01:26:15;;;;;;;59.50;35.25;;;6.40;99.90;;;;;;5035837;28;20207;-73
2023/02/16 01:28:44;;;;;;;55.00;32.88;;;6.30;99.90;;;;;;5034824;28;20217;-73
2023/02/16 01:31:11;;;;;;;51.42;34.70;;;6.30;99.90;;;;;;5035849;28;20303;-73
2023/02/16 01:33:38;;;;;;;52.28;33.00;;;6.20;99.90;;;;;;5036025;28;20291;-71
2023/02/16 01:36:06;;;;;;;49.55;32.13;;;6.20;99.90;;;;;;5039685;28;20206;-73
2023/02/16 01:38:33;;;;;;;48.67;32.20;;;6.20;99.90;;;;;;5036421;28;20567;-74
2023/02/16 01:41:09;;;;;;;49.72;32.47;;;6.10;99.90;;;;;;5043278;28;20285;-71
2023/02/16 01:43:52;;;;;;;66.35;31.80;;;6.10;99.90;;;;;;5028977;28;20219;-71
2023/02/16 01:46:23;;;;;;;56.17;32.45;;;6.10;99.90;;;;;;5036557;28;20203;-75
2023/02/16 01:48:49;;;;;;;63.47;33.42;;;6.10;99.90;;;;;;5033965;28;20226;-72
2023/02/16 01:51:21;;;;;;;55.50;36.05;;;6.00;99.90;;;;;;5034506;28;20288;-74
2023/02/16 01:53:51;;;;;;;52.42;32.40;;;6.00;99.90;;;;;;5026773;28;20200;-73
2023/02/16 01:56:28;;;;;;;49.65;32.72;;;5.90;99.90;;;;;;5036390;28;20202;-72
2023/02/16 01:59:00;;;;;;;49.55;31.70;;;5.90;99.90;;;;;;5031625;28;20751;-74
2023/02/16 02:07:44;;;;;;;53.72;31.77;;;5.80;99.90;;;;;;5032924;28;20267;-73
2023/02/16 02:10:16;;;;;;;49.60;32.58;;;5.80;99.90;;;;;;5034557;28;20224;-72
2023/02/16 02:12:49;;;;;;;48.25;34.58;;;5.80;99.90;;;;;;5033438;28;20244;-72
2023/02/16 02:15:22;;;;;;;47.55;32.58;;;5.70;99.90;;;;;;5030385;28;20222;-71
2023/02/16 02:17:49;;;;;;;46.90;31.20;;;5.70;99.90;;;;;;5025776;28;20200;-72
2023/02/16 02:20:22;;;;;;;52.90;31.27;;;5.80;99.90;;;;;;5032631;28;20225;-73
2023/02/16 02:23:32;;;;;;;41.88;29.13;;;5.80;99.90;;;;;;5026814;28;20559;-72
2023/02/16 02:26:39;;;;;;;53.70;31.33;;;5.80;99.90;;;;;;5026093;28;20487;-73
2023/02/16 02:29:28;;;;;;;48.55;28.80;;;5.80;99.90;;;;;;5034491;28;20303;-73
2023/02/16 02:32:03;;;;;;;50.43;29.40;;;5.80;99.90;;;;;;4992167;28;1174912;-71
2023/02/16 02:34:48;;;;;;;46.00;29.80;;;5.80;99.90;;;;;;5032976;28;20208;-71
2023/02/16 02:37:22;;;;;;;44.55;29.90;;;5.80;99.90;;;;;;5031153;28;20202;-71
2023/02/16 02:39:58;;;;;;;52.90;31.48;;;5.80;99.90;;;;;;5035880;28;20253;-73
2023/02/16 02:42:33;;;;;;;48.63;28.65;;;5.80;99.90;;;;;;5044009;28;20293;-72
2023/02/16 02:45:08;;;;;;;46.80;31.80;;;5.90;99.90;;;;;;5036536;28;20237;-72
2023/02/16 02:47:40;;;;;;;50.67;31.83;;;5.80;99.90;;;;;;5048922;28;20235;-72
2023/02/16 02:50:36;;;;;;;47.95;29.80;;;5.80;99.90;;;;;;5040876;28;20228;-72
2023/02/16 02:53:06;;;;;;;49.33;29.70;;;5.80;99.90;;;;;;5036616;28;20206;-74
2023/02/16 03:01:13;;;;;;;51.63;30.00;;;5.80;99.90;;;;;;5041077;28;20223;-75
2023/02/16 03:03:46;;;;;;;45.25;28.65;;;5.70;99.90;;;;;;5038289;28;20293;-74
2023/02/16 03:06:17;;;;;;;45.47;27.17;;;5.70;99.90;;;;;;5039336;28;20203;-73
2023/02/16 03:08:48;;;;;;;46.35;28.80;;;5.80;99.90;;;;;;5025468;28;20299;-73
2023/02/16 03:14:07;;;;;;;40.95;26.58;;;5.70;99.90;;;;;;5032247;28;20234;-73
2023/02/16 03:16:39;;;;;;;42.83;27.02;;;5.70;99.90;;;;;;5031700;28;20661;-73
2023/02/16 03:30:13;;;;;;;44.25;30.40;;;5.70;99.90;;;;;;5038684;28;20224;-73
2023/02/16 03:32:41;;;;;;;42.55;28.02;;;5.70;99.90;;;;;;5032578;28;20206;-72
2023/02/16 03:35:11;;;;;;;50.03;29.80;;;5.70;99.90;;;;;;5032771;28;20268;-71
2023/02/16 03:37:39;;;;;;;51.47;29.20;;;5.60;99.90;;;;;;5033590;28;20208;-71
2023/02/16 03:40:29;;;;;;;43.00;28.08;;;5.70;99.90;;;;;;5031767;28;20221;-74
2023/02/16 03:42:57;;;;;;;46.55;27.25;;;5.60;99.90;;;;;;5028165;28;20205;-72
2023/02/16 03:45:25;;;;;;;41.92;27.10;;;5.60;99.90;;;;;;5037974;28;20198;-72
2023/02/16 03:47:54;;;;;;;49.95;28.60;;;5.50;99.90;;;;;;5034265;28;20200;-74
2023/02/16 03:50:21;;;;;;;46.75;28.73;;;5.60;99.90;;;;;;5036032;28;20225;-71
2023/02/16 03:52:48;;;;;;;38.80;27.50;;;5.60;99.90;;;;;;5033444;28;20232;-72
2023/02/16 03:55:15;;;;;;;35.72;26.25;;;5.60;99.90;;;;;;5034017;28;20238;-71
2023/02/16 03:57:42;;;;;;;44.40;29.45;;;5.70;99.90;;;;;;5041613;28;20210;-73
2023/02/16 04:00:10;;;;;;;45.17;28.35;;;5.70;99.90;;;;;;5031483;28;20287;-72
2023/02/16 04:02:38;;;;;;;49.47;30.08;;;5.80;99.90;;;;;;5037272;28;20621;-72
2023/02/16 04:05:07;;;;;;;49.55;30.75;;;5.70;99.90;;;;;;5027667;28;20280;-72
2023/02/16 04:07:34;;;;;;;47.28;29.35;;;5.60;99.90;;;;;;5034745;28;20289;-72
2023/02/16 04:10:01;;;;;;;45.20;30.35;;;5.60;99.90;;;;;;5035796;28;20226;-73
2023/02/16 04:12:37;;;;;;;43.97;29.52;;;5.50;99.90;;;;;;5031485;28;20280;-73
2023/02/16 04:15:06;;;;;;;53.05;32.03;;;5.50;99.90;;;;;;5036952;28;20215;-72
2023/02/16 04:17:33;;;;;;;51.03;31.65;;;5.50;99.90;;;;;;5033564;28;20226;-71
2023/02/16 04:20:00;;;;;;;48.78;31.08;;;5.40;99.90;;;;;;5031159;28;20240;-72
2023/02/16 04:22:30;;;;;;;45.83;31.98;;;5.40;99.90;;;;;;5032704;28;20699;-73
2023/02/16 04:24:57;;;;;;;43.90;29.38;;;5.40;99.90;;;;;;5034243;28;20285;-72
2023/02/16 04:27:26;;;;;;;52.40;30.63;;;5.40;99.90;;;;;;5032821;28;20726;-73
2023/02/16 04:29:52;;;;;;;53.70;33.67;;;5.40;99.90;;;;;;5031252;28;20660;-71
2023/02/16 04:32:19;;;;;;;48.20;31.00;;;5.30;99.90;;;;;;5033039;28;20219;-72
2023/02/16 04:34:46;;;;;;;53.50;29.08;;;5.40;99.90;;;;;;5032824;28;20555;-73
2023/02/16 04:37:13;;;;;;;48.85;28.85;;;5.60;99.90;;;;;;5035151;28;20642;-73
2023/02/16 04:39:42;;;;;;;52.38;33.30;;;5.60;99.90;;;;;;5031198;28;20218;-72
2023/02/16 04:42:09;;;;;;;51.20;32.08;;;5.60;99.90;;;;;;5034474;28;20292;-73
2023/02/16 04:44:36;;;;;;;48.13;30.15;;;5.60;99.90;;;;;;5039301;28;20227;-73
2023/02/16 04:47:03;;;;;;;51.40;31.00;;;5.70;99.90;;;;;;5032392;28;20233;-73
2023/02/16 04:49:30;;;;;;;52.05;33.42;;;5.60;99.90;;;;;;5033488;28;20225;-74
2023/02/16 04:51:57;;;;;;;52.30;31.95;;;5.50;99.90;;;;;;5038192;28;20692;-71
2023/02/16 04:54:24;;;;;;;48.05;31.10;;;5.50;99.90;;;;;;5040452;28;20213;-73
2023/02/16 04:56:52;;;;;;;51.72;31.90;;;5.50;99.90;;;;;;5035890;28;20360;-72
2023/02/16 04:59:20;;;;;;;62.13;34.83;;;5.50;99.90;;;;;;5036068;28;20227;-73
2023/02/16 05:01:47;;;;;;;52.65;32.35;;;5.50;99.90;;;;;;5034709;28;20198;-72
2023/02/16 05:04:15;;;;;;;54.30;32.88;;;5.50;99.90;;;;;;5037120;28;20201;-73
2023/02/16 05:06:42;;;;;;;57.03;35.05;;;5.60;99.90;;;;;;5035382;28;20225;-71
2023/02/16 05:09:09;;;;;;;59.17;35.00;;;5.60;99.90;;;;;;5035819;28;20294;-72
2023/02/16 05:14:43;;;;;;;58.05;34.00;;;5.40;99.90;;;;;;5035399;28;20204;-73
2023/02/16 05:17:13;;;;;;;58.80;33.70;;;5.40;99.90;;;;;;5035205;28;20254;-72
2023/02/16 05:19:40;;;;;;;50.65;32.58;;;5.50;99.90;;;;;;5034730;28;20307;-74
2023/02/16 05:22:08;;;;;;;64.65;36.78;;;5.50;99.90;;;;;;5035400;28;20208;-74
2023/02/16 05:24:35;;;;;;;52.80;34.63;;;5.50;99.90;;;;;;5035176;28;20281;-74
2023/02/16 05:27:04;;;;;;;54.67;32.95;;;5.60;99.90;;;;;;5037201;28;20590;-73
2023/02/16 05:29:32;;;;;;;60.58;32.45;;;5.60;99.90;;;;;;5036503;28;20224;-71
2023/02/16 05:31:59;;;;;;;53.10;34.13;;;5.60;99.90;;;;;;5038137;28;20295;-73
2023/02/16 05:34:27;;;;;;;53.95;33.88;;;5.60;99.90;;;;;;5037031;28;20215;-72
2023/02/16 05:36:54;;;;;;;55.67;33.28;;;5.50;99.90;;;;;;5037606;28;20219;-74
2023/02/16 05:39:22;;;;;;;56.97;33.50;;;5.50;99.90;;;;;;5026893;28;20222;-74
2023/02/16 05:41:49;;;;;;;50.22;31.05;;;5.50;99.90;;;;;;5035796;28;20283;-73
2023/02/16 05:44:16;;;;;;;53.55;35.47;;;5.60;99.90;;;;;;5034874;28;20670;-72
2023/02/16 05:46:46;;;;;;;58.80;39.15;;;5.60;99.90;;;;;;5041519;28;20201;-75
2023/02/16 05:49:13;;;;;;;50.92;34.10;;;5.70;99.90;;;;;;5032825;28;20229;-72
2023/02/16 05:51:40;;;;;;;59.33;34.60;;;5.70;99.90;;;;;;5030596;28;20299;-73
2023/02/16 05:54:09;;;;;;;57.45;36.30;;;5.80;99.90;;;;;;5044661;28;20287;-74
2023/02/16 05:56:36;;;;;;;55.05;35.42;;;5.90;99.90;;;;;;5047928;28;20219;-73
2023/02/16 05:59:03;;;;;;;59.97;35.28;;;5.90;99.90;;;;;;5052391;28;20240;-73
2023/02/16 06:01:31;;;;;;;50.50;32.80;;;6.00;99.90;;;;;;5044843;28;20201;-74
2023/02/16 06:03:59;;;;;;;55.95;35.20;;;6.00;99.90;;;;;;5040167;28;20288;-72
2023/02/16 06:06:26;;;;;;;51.03;33.45;;;6.10;99.90;;;;;;5033994;28;20230;-74
2023/02/16 06:09:11;;;;;;;55.63;36.10;;;6.10;99.90;;;;;;5030013;28;20232;-75
2023/02/16 06:11:38;;;;;;;63.90;37.17;;;6.20;99.90;;;;;;5032934;28;20661;-72
2023/02/16 06:14:06;;;;;;;56.50;36.78;;;6.20;99.90;;;;;;5036137;28;20621;-74
2023/02/16 06:16:35;;;;;;;49.72;33.90;;;6.20;99.90;;;;;;5031714;28;20684;-72
2023/02/16 06:19:05;;;;;;;57.25;34.05;;;6.30;99.90;;;;;;5039477;28;20226;-73
2023/02/16 06:21:32;;;;;;;53.95;34.92;;;6.30;99.90;;;;;;5033155;28;20233;-73
2023/02/16 06:23:59;;;;;;;52.13;34.20;;;6.30;99.90;;;;;;5034305;28;20248;-73
2023/02/16 06:26:27;;;;;;;46.60;33.53;;;6.50;99.90;;;;;;5040203;28;20210;-73
2023/02/16 06:28:54;;;;;;;51.95;34.63;;;6.40;99.90;;;;;;5041406;28;20297;-73
2023/02/16 06:31:21;;;;;;;56.45;34.65;;;6.40;99.90;;;;;;5049812;28;20264;-73
2023/02/16 06:33:48;;;;;;;48.90;31.30;;;6.50;99.90;;;;;;5046861;28;20226;-75
2023/02/16 06:36:16;;;;;;;56.50;37.70;;;6.50;99.90;;;;;;5048399;28;20226;-73
2023/02/16 06:38:44;;;;;;;56.53;36.70;;;6.50;99.90;;;;;;5037966;28;20292;-74
2023/02/16 06:41:11;;;;;;;53.00;36.85;;;6.50;99.90;;;;;;5027020;28;20221;-73
2023/02/16 06:43:38;;;;;;;56.40;34.50;;;6.60;99.90;;;;;;5036636;28;20287;-74
2023/02/16 06:46:05;;;;;;;45.58;33.15;;;6.60;99.90;;;;;;5035982;28;20209;-74
2023/02/16 06:48:32;;;;;;;61.03;35.50;;;6.60;99.90;;;;;;5035608;28;20297;-73
2023/02/16 06:50:59;;;;;;;57.13;36.42;;;6.60;99.90;;;;;;5035850;28;20267;-74
2023/02/16 06:53:27;;;;;;;54.25;32.58;;;6.70;99.90;;;;;;5033257;28;20204;-73
2023/02/16 06:55:54;;;;;;;49.60;31.48;;;6.70;99.90;;;;;;5037320;28;20227;-74
2023/02/16 06:58:21;;;;;;;58.20;35.80;;;6.70;99.90;;;;;;5034574;28;20289;-73
2023/02/16 07:00:48;;;;;;;53.00;34.60;;;6.80;99.90;;;;;;5027491;28;20555;-74
2023/02/16 07:03:15;;;;;;;52.20;34.03;;;6.90;99.90;;;;;;5030093;28;20654;-73
2023/02/16 07:05:42;;;;;;;47.78;32.58;;;6.90;99.90;;;;;;5032973;28;20238;-73
2023/02/16 07:08:09;;;;;;;54.60;35.38;;;6.90;99.90;;;;;;5040515;28;20298;-72
2023/02/16 07:10:47;;;;;;;58.83;35.50;;;7.00;99.90;;;;;;5042989;28;20236;-72
2023/02/16 07:13:14;;;;;;;56.63;34.88;;;7.00;99.90;;;;;;5033819;28;20647;-74
2023/02/16 07:15:41;;;;;;;53.75;35.80;;;7.00;99.90;;;;;;5024718;28;20277;-75
2023/02/16 07:18:08;;;;;;;58.97;35.35;;;6.90;99.90;;;;;;5032953;28;20208;-74
2023/02/16 07:20:36;;;;;;;55.08;36.25;;;6.70;99.90;;;;;;5023923;28;20318;-72
2023/02/16 07:23:03;;;;;;;56.13;34.08;;;6.90;99.90;;;;;;5028254;28;20306;-72
2023/02/16 07:25:31;;;;;;;53.90;36.13;;;6.80;99.90;;;;;;5026185;28;20210;-72
2023/02/16 07:27:59;;;;;;;55.03;36.10;;;6.80;99.90;;;;;;5025813;28;20304;-73
2023/02/16 07:30:26;;;;;;;53.05;38.92;;;6.80;99.90;;;;;;5034818;28;20912;-71
2023/02/16 07:32:53;;;;;;;51.13;36.40;;;7.00;99.90;;;;;;5043398;28;20211;-73
2023/02/16 07:35:21;;;;;;;51.38;35.45;;;7.10;99.90;;;;;;5036063;28;20207;-75
2023/02/16 07:37:48;;;;;;;45.42;34.00;;;7.30;99.90;;;;;;5031628;28;20204;-71
2023/02/16 07:40:15;;;;;;;54.45;36.15;;;7.40;99.90;;;;;;5028320;28;20287;-75
2023/02/16 07:42:42;;;;;;;51.67;35.78;;;7.20;99.90;;;;;;5043416;28;20195;-73
2023/02/16 07:45:17;;;;;;;53.95;35.00;;;7.30;99.90;;;;;;5037668;28;20202;-73
2023/02/16 07:47:44;;;;;;;56.72;36.25;;;7.20;99.90;;;;;;5024311;28;20203;-75
2023/02/16 07:50:12;;;;;;;54.38;36.15;;;7.20;99.90;;;;;;5031214;28;20378;-74
2023/02/16 07:52:38;;;;;;;53.42;36.70;;;7.30;99.90;;;;;;5031588;28;20294;-73
2023/02/16 07:55:06;;;;;;;64.40;38.63;;;7.30;99.90;;;;;;5032909;28;20298;-73
2023/02/16 07:57:33;;;;;;;48.63;33.60;;;7.40;99.90;;;;;;5031875;28;20294;-73
2023/02/16 08:00:00;;;;;;;43.10;34.58;;;7.30;99.90;;;;;;5031636;28;20259;-72
2023/02/16 08:02:28;;;;;;;52.63;34.90;;;7.40;99.90;;;;;;5033176;28;20289;-74
2023/02/16 08:04:55;;;;;;;50.47;34.53;;;7.40;99.90;;;;;;5026621;28;20631;-75
2023/02/16 08:07:22;;;;;;;55.75;34.63;;;7.60;99.90;;;;;;5029336;28;20239;-72
2023/02/16 08:09:49;;;;;;;55.58;36.63;;;7.60;99.90;;;;;;5031290;28;20227;-74
2023/02/16 08:12:20;;;;;;;53.83;35.58;;;7.60;99.90;;;;;;5028012;28;20234;-73
2023/02/16 08:14:47;;;;;;;49.58;33.92;;;7.70;99.90;;;;;;5041189;28;20202;-73
2023/02/16 08:17:14;;;;;;;55.05;34.95;;;7.70;99.90;;;;;;5036593;28;20701;-73
2023/02/16 08:19:43;;;;;;;55.85;37.75;;;7.70;99.90;;;;;;5032702;28;20264;-74
2023/02/16 08:22:13;;;;;;;56.25;35.42;;;7.80;99.90;;;;;;5027314;28;20203;-71
2023/02/16 08:24:40;;;;;;;47.67;33.47;;;8.00;99.90;;;;;;5032999;28;20673;-74
2023/02/16 08:27:06;;;;;;;48.70;33.22;;;8.10;99.90;;;;;;5031638;28;20201;-73
2023/02/16 08:29:34;;;;;;;50.05;35.03;;;8.10;99.90;;;;;;5033798;28;20263;-73
2023/02/16 08:32:06;;;;;;;49.20;32.85;;;8.10;99.90;;;;;;5035234;28;20212;-72
2023/02/16 08:34:37;;;;;;;46.53;32.78;;;8.10;99.90;;;;;;5034196;28;20200;-74
2023/02/16 08:37:05;;;;;;;53.63;34.60;;;8.00;99.90;;;;;;5034688;28;20228;-72
2023/02/16 08:39:34;;;;;;;48.47;35.22;;;8.00;99.90;;;;;;5028259;28;20312;-74
2023/02/16 08:42:02;;;;;;;55.25;36.90;;;8.00;99.90;;;;;;5038727;28;20602;-72
2023/02/16 08:44:30;;;;;;;51.88;33.85;;;8.00;99.90;;;;;;5038630;28;20235;-73
2023/02/16 08:47:00;;;;;;;50.67;35.20;;;8.00;99.90;;;;;;5041370;28;20700;-74
2023/02/16 08:49:29;;;;;;;51.30;32.60;;;7.80;99.90;;;;;;5043940;28;20242;-72
2023/02/16 08:51:58;;;;;;;47.10;35.97;;;7.90;99.90;;;;;;5033700;28;20200;-73
2023/02/16 08:54:31;;;;;;;53.83;38.05;;;8.00;99.90;;;;;;5034308;28;20230;-71
2023/02/16 08:57:01;;;;;;;46.83;34.97;;;8.10;99.90;;;;;;5028957;28;20219;-72
2023/02/16 08:59:28;;;;;;;48.65;33.10;;;8.30;99.90;;;;;;5057914;22;20223;-87
2023/02/16 09:01:55;;;;;;;51.03;36.33;;;8.20;99.90;;;;;;5045006;28;20499;-86
2023/02/16 09:04:23;;;;;;;57.08;36.85;;;8.20;99.90;;;;;;5046426;28;20236;-86
2023/02/16 09:06:51;;;;;;;45.53;32.92;;;8.20;99.90;;;;;;5035469;28;20216;-86
2023/02/16 09:09:18;;;;;;;55.72;35.65;;;8.00;99.90;;;;;;5048658;28;20235;-85
2023/02/16 09:11:47;;;;;;;52.63;34.67;;;8.10;99.90;;;;;;5045025;28;20203;-87
2023/02/16 09:14:15;;;;;;;48.85;33.92;;;8.00;99.90;;;;;;5042128;28;20229;-86
2023/02/16 09:16:44;;;;;;;54.10;34.45;;;8.10;99.90;;;;;;5040502;28;20234;-86
2023/02/16 09:19:13;;;;;;;54.67;37.45;;;8.20;99.90;;;;;;5040361;28;20211;-84
2023/02/16 09:21:40;;;;;;;50.03;34.47;;;8.30;99.90;;;;;;5036626;28;20224;-85
2023/02/16 09:24:08;;;;;;;59.72;34.25;;;8.40;99.90;;;;;;5036288;28;20197;-85
2023/02/16 09:26:37;;;;;;;49.42;33.90;;;8.50;99.90;;;;;;5046474;28;20316;-86
2023/02/16 09:29:06;;;;;;;45.28;32.88;;;8.60;99.90;;;;;;5045094;28;20228;-82
2023/02/16 09:31:35;;;;;;;53.17;34.90;;;8.40;99.90;;;;;;5040623;28;20710;-86
2023/02/16 09:34:04;;;;;;;54.88;34.92;;;8.40;99.90;;;;;;5041205;28;20201;-85
2023/02/16 09:36:31;;;;;;;52.72;32.65;;;8.50;99.90;;;;;;5028118;28;20224;-63
2023/02/16 09:38:58;;;;;;;52.15;33.15;;;8.60;99.90;;;;;;5029212;28;20196;-64
2023/02/16 09:41:41;;;;;;;49.75;34.50;;;8.70;99.90;;;;;;5023673;28;20223;-64
2023/02/16 09:44:20;;;;;;;50.92;34.03;;;8.80;99.90;;;;;;5022258;28;20207;-64
2023/02/16 09:46:49;;;;;;;54.25;36.30;;;8.90;99.90;;;;;;5026264;28;20226;-65
2023/02/16 09:49:24;;;;;;;42.65;30.65;;;9.10;99.90;;;;;;5021953;28;20584;-64
2023/02/16 09:51:59;;;;;;;57.63;35.20;;;9.00;99.90;;;;;;5027425;28;20212;-63
2023/02/16 09:54:35;;;;;;;41.58;31.42;;;9.00;99.90;;;;;;5027570;28;20661;-64
2023/02/16 09:57:08;;;;;;;45.10;31.38;;;8.90;99.90;;;;;;5019424;28;20216;-65
2023/02/16 09:59:47;;;;;;;51.00;34.13;;;8.90;99.90;;;;;;5020615;28;20215;-65
2023/02/16 10:02:34;;;;;;;48.75;34.67;;;9.10;99.90;;;;;;5019465;28;20250;-63
2023/02/16 10:05:17;;;;;;;52.28;32.20;;;9.10;99.90;;;;;;5030126;28;20204;-62
2023/02/16 10:07:56;;;;;;;42.65;31.05;;;9.20;99.90;;;;;;5019353;28;20221;-62
2023/02/16 10:10:26;;;;;;;48.38;33.05;;;9.50;99.90;;;;;;5025329;28;20207;-61
2023/02/16 10:12:56;;;;;;;41.78;31.00;;;9.70;99.90;;;;;;5021241;28;20201;-61
2023/02/16 10:15:28;;;;;;;57.90;38.55;;;10.20;99.90;;;;;;5031691;28;20300;-63
2023/02/16 10:17:59;;;;;;;47.45;31.98;;;10.30;99.90;;;;;;5021979;28;20226;-63
2023/02/16 10:20:31;;;;;;;46.45;33.17;;;10.10;99.90;;;;;;5025489;28;20211;-63
2023/02/16 10:23:03;;;;;;;50.45;33.85;;;10.20;99.90;;;;;;5029554;28;20614;-63
2023/02/16 10:25:39;;;;;;;53.88;33.38;;;10.30;99.90;;;;;;5022362;28;20209;-61
2023/02/16 10:28:12;;;;;;;55.33;35.60;;;10.30;99.90;;;;;;5023370;28;20202;-61
2023/02/16 10:30:46;;;;;;;55.15;34.28;;;10.40;99.90;;;;;;5013123;28;20208;-62
2023/02/16 10:33:16;;;;;;;49.08;34.20;;;10.10;99.90;;;;;;5023256;28;20304;-62
2023/02/16 10:35:47;;;;;;;51.13;34.63;;;9.70;99.90;;;;;;5021159;28;20323;-63
2023/02/16 10:38:21;;;;;;;50.60;32.92;;;9.60;99.90;;;;;;5025147;28;20621;-60
2023/02/16 10:40:56;;;;;;;50.22;36.13;;;9.50;99.90;;;;;;5023729;28;20218;-62
2023/02/16 10:43:31;;;;;;;48.33;33.65;;;9.50;99.90;;;;;;5024775;28;20196;-64
2023/02/16 10:46:02;;;;;;;52.35;34.65;;;9.60;99.90;;;;;;5024616;28;20697;-63
2023/02/16 10:48:29;;;;;;;52.38;35.60;;;9.60;99.90;;;;;;5021010;28;20201;-62
2023/02/16 10:51:00;;;;;;;50.42;36.95;;;9.60;99.90;;;;;;5021180;28;20204;-64
2023/02/16 10:53:39;;;;;;;47.90;32.28;;;9.80;99.90;;;;;;5030245;28;20204;-62
2023/02/16 10:56:36;;;;;;;49.58;34.45;;;9.70;99.90;;;;;;5019888;28;20243;-64
2023/02/16 10:59:07;;;;;;;53.30;33.63;;;9.80;99.90;;;;;;5014741;28;20201;-64
2023/02/16 11:01:38;;;;;;;50.72;33.10;;;9.90;99.90;;;;;;5018045;28;20221;-63
2023/02/16 11:04:06;;;;;;;57.35;36.40;;;10.10;99.90;;;;;;5022394;28;20593;-65
2023/02/16 11:06:33;;;;;;;49.60;34.67;;;10.10;99.90;;;;;;5019221;28;20235;-65
2023/02/16 11:09:03;;;;;;;52.85;36.53;;;10.10;99.90;;;;;;5019992;28;20224;-63
2023/02/16 11:11:35;;;;;;;50.38;37.10;;;9.90;99.90;;;;;;5021018;28;20212;-65
2023/02/16 11:14:05;;;;;;;53.55;36.63;;;9.90;99.90;;;;;;5023378;28;20208;-65
2023/02/16 11:16:33;;;;;;;52.75;35.97;;;9.80;99.90;;;;;;5025248;28;20250;-64
2023/02/16 11:19:05;;;;;;;48.95;33.70;;;9.80;99.90;;;;;;5020797;28;20207;-63
2023/02/16 11:21:44;;;;;;;54.67;34.65;;;9.80;99.90;;;;;;5020925;28;20278;-64
2023/02/16 11:24:14;;;;;;;52.83;35.67;;;9.80;99.90;;;;;;5015773;28;20227;-62
2023/02/16 11:26:41;;;;;;;53.08;37.03;;;9.90;99.90;;;;;;5023474;28;20228;-63
2023/02/16 11:29:20;;;;;;;55.63;35.55;;;10.00;99.90;;;;;;5024799;28;20229;-65
2023/02/16 11:31:47;;;;;;;53.25;36.45;;;10.00;99.90;;;;;;5018901;28;20298;-63
2023/02/16 11:34:26;;;;;;;61.67;38.00;;;10.20;99.90;;;;;;5020558;28;20611;-63
2023/02/16 11:37:02;;;;;;;61.00;37.35;;;10.30;99.90;;;;;;5019962;28;20260;-64
2023/02/16 11:39:34;;;;;;;54.58;35.20;;;10.20;99.90;;;;;;5031841;28;20271;-63
2023/02/16 11:42:04;;;;;;;49.58;35.40;;;10.30;99.90;;;;;;5027068;28;20583;-63
2023/02/16 11:44:35;;;;;;;51.78;33.85;;;10.40;99.90;;;;;;5027387;28;20207;-62
2023/02/16 11:47:04;;;;;;;47.63;34.88;;;10.30;99.90;;;;;;5023253;28;20344;-64
2023/02/16 11:49:35;;;;;;;58.30;35.90;;;10.30;99.90;;;;;;5024232;28;20561;-63
2023/02/16 11:52:19;;;;;;;56.95;33.95;;;10.40;99.90;;;;;;5021338;28;20230;-63
2023/02/16 11:54:49;;;;;;;51.55;34.13;;;10.40;99.90;;;;;;5027469;28;20345;-63
2023/02/16 11:57:22;;;;;;;65.82;39.55;;;10.40;99.90;;;;;;5025125;28;20225;-62
2023/02/16 11:59:50;;;;;;;53.67;34.67;;;10.30;99.90;;;;;;5021282;28;20296;-65
2023/02/16 12:02:49;;;;;;;60.72;37.38;;;10.30;99.90;;;;;;5022308;28;20300;-63
2023/02/16 12:05:30;;;;;;;60.58;38.70;;;10.30;99.90;;;;;;5019169;28;20208;-64
2023/02/16 12:08:14;;;;;;;55.20;37.20;;;10.30;99.90;;;;;;5030734;28;20216;-65
2023/02/16 12:10:51;;;;;;;59.05;37.63;;;10.20;99.90;;;;;;5019194;28;20238;-64
2023/02/16 12:13:24;;;;;;;57.53;38.28;;;10.10;99.90;;;;;;5024788;28;20214;-63
2023/02/16 12:15:57;;;;;;;66.95;41.60;;;10.10;99.90;;;;;;5026908;28;20284;-64
2023/02/16 12:18:36;;;;;;;58.60;36.65;;;10.10;99.90;;;;;;5029674;28;20201;-64
2023/02/16 12:21:11;;;;;;;63.20;38.47;;;10.00;99.90;;;;;;5033116;28;20201;-63
2023/02/16 12:23:42;;;;;;;55.05;37.85;;;10.00;99.90;;;;;;5027556;28;20251;-63
2023/02/16 12:26:30;;;;;;;61.47;38.20;;;9.90;99.90;;;;;;5032958;28;20714;-63
2023/02/16 12:29:07;;;;;;;65.15;40.78;;;9.80;99.90;;;;;;5025260;28;20207;-66
2023/02/16 12:31:46;;;;;;;65.25;40.80;;;9.80;99.90;;;;;;5035793;28;20278;-66
2023/02/16 12:34:23;;;;;;;63.47;39.55;;;9.70;99.90;;;;;;5035898;28;20727;-66
2023/02/16 12:37:02;;;;;;;66.60;39.65;;;9.70;99.90;;;;;;5039909;28;20212;-69
2023/02/16 12:39:33;;;;;;;62.33;41.97;;;9.60;99.90;;;;;;5029916;28;20232;-72
2023/02/16 12:42:24;;;;;;;69.28;43.72;;;9.70;99.90;;;;;;5036742;28;20230;-74
2023/02/16 12:44:53;;;;;;;62.90;41.63;;;9.70;99.90;;;;;;5022470;28;20197;-73
2023/02/16 12:47:26;;;;;;;63.35;41.17;;;9.80;99.90;;;;;;5027008;28;20255;-68
2023/02/16 12:49:56;;;;;;;69.18;42.35;;;9.70;99.90;;;;;;5030118;28;20571;-69
2023/02/16 12:52:35;;;;;;;69.43;43.60;;;9.80;99.90;;;;;;5030627;28;20208;-66
2023/02/16 12:55:17;;;;;;;68.03;40.33;;;9.70;99.90;;;;;;5038163;28;20309;-66
2023/02/16 12:57:52;;;;;;;62.65;41.97;;;9.70;99.90;;;;;;5032088;28;20232;-65
2023/02/16 13:00:24;;;;;;;66.88;41.67;;;9.60;99.90;;;;;;5035366;28;20224;-65
2023/02/16 13:02:56;;;;;;;66.95;42.30;;;9.60;99.90;;;;;;5030088;28;20217;-65
2023/02/16 13:05:28;;;;;;;64.05;43.40;;;9.70;99.90;;;;;;5022102;28;20329;-66
2023/02/16 13:08:02;;;;;;;67.55;43.92;;;9.70;99.90;;;;;;5023250;28;20312;-65
2023/02/16 13:10:35;;;;;;;63.75;41.47;;;9.80;99.90;;;;;;5023467;28;20216;-65
2023/02/16 13:13:06;;;;;;;70.40;43.85;;;9.90;99.90;;;;;;5026441;28;20214;-65
2023/02/16 13:15:36;;;;;;;64.78;42.78;;;9.90;99.90;;;;;;5024700;28;20204;-65
2023/02/16 13:18:07;;;;;;;63.85;42.78;;;10.00;99.90;;;;;;5029701;28;20266;-65
2023/02/16 13:20:33;;;;;;;59.58;41.72;;;10.20;99.90;;;;;;5028465;28;20207;-65
2023/02/16 13:23:34;;;;;;;67.00;44.45;;;10.30;99.90;;;;;;5022168;28;20202;-66
2023/02/16 13:26:17;;;;;;;60.33;42.13;;;10.30;99.90;;;;;;5019385;28;20252;-65
2023/02/16 13:29:06;;;;;;;62.83;41.28;;;10.50;99.90;;;;;;5018943;28;20689;-65